Salt, Spain
Current Conditions -  °F | °C
As of 12:30 PM on Friday 31 Oct 2014 (Local Time) from LEGE Reporting Station
Few Clouds Few Clouds  
Wind Chill: 68°   Ceiling: Unl
Heat Index: 68°   Visibility: 6mi
Dew Point: 57°   Wind: 1mph
Humidity: 68%   Direction: 180°S
Pressure: 30.27"   Gusts: NA
Location:  41.97°N, 2.79°E
Report Text: LEGE 311130Z 18001KT 9999 FEW020 20/14 Q1025
Loading
Personal Weather Stations






























Interactive Weather Map
Tropical Storm Tracking
New forecast layout! Learn more

10-Day Weather Forecast

Advertisements
Track Severe Weather on mobile